createdAt,value
2018-02-14T00:01:02.106Z,11.87
2018-02-14T00:03:29.686Z,15.80
2018-02-14T00:05:57.147Z,13.40
2018-02-14T00:08:24.630Z,14.73
2018-02-14T00:10:52.152Z,12.97
2018-02-14T00:13:19.613Z,13.80
2018-02-14T00:15:47.148Z,12.10
2018-02-14T00:18:14.605Z,14.30
2018-02-14T00:20:42.872Z,16.33
2018-02-14T00:23:10.358Z,11.50
2018-02-14T00:25:38.291Z,11.03
2018-02-14T00:28:05.900Z,13.37
2018-02-14T00:30:33.358Z,15.60
2018-02-14T00:33:00.818Z,15.47
2018-02-14T00:35:28.284Z,13.07
2018-02-14T00:37:55.754Z,13.13
2018-02-14T00:40:24.014Z,15.10
2018-02-14T00:42:51.474Z,18.10
2018-02-14T00:45:18.909Z,21.53
2018-02-14T00:47:46.403Z,13.50
2018-02-14T00:50:14.611Z,20.47
2018-02-14T00:52:42.094Z,14.27
2018-02-14T00:55:09.574Z,14.77
2018-02-14T00:57:37.125Z,18.23
2018-02-14T01:00:04.585Z,17.00
2018-02-14T01:02:32.062Z,15.70
2018-02-14T01:04:59.495Z,11.67
2018-02-14T01:07:26.975Z,15.10
2018-02-14T01:09:54.418Z,15.70
2018-02-14T01:12:21.919Z,17.67
2018-02-14T01:14:49.378Z,14.23
2018-02-14T01:17:17.610Z,14.50
2018-02-14T01:19:45.052Z,19.13
2018-02-14T01:22:12.526Z,15.33
2018-02-14T01:24:39.997Z,17.33
2018-02-14T01:27:07.457Z,15.27
2018-02-14T01:29:34.944Z,22.00
2018-02-14T01:32:03.172Z,15.73
2018-02-14T01:34:30.650Z,16.83
2018-02-14T01:36:58.105Z,14.40
2018-02-14T01:39:25.567Z,14.30
2018-02-14T01:41:53.027Z,12.47
2018-02-14T01:44:20.486Z,14.43
2018-02-14T01:46:47.945Z,13.53
2018-02-14T01:49:15.420Z,18.73
2018-02-14T01:51:43.632Z,16.73
2018-02-14T01:54:11.230Z,13.80
2018-02-14T01:56:38.693Z,14.30
2018-02-14T01:59:06.272Z,15.20
2018-02-14T02:01:34.552Z,14.37
2018-02-14T02:04:01.983Z,16.40
2018-02-14T02:06:29.444Z,12.97
2018-02-14T02:08:56.900Z,15.70
2018-02-14T02:11:24.339Z,11.37
2018-02-14T02:13:51.819Z,14.63
2018-02-14T02:16:19.305Z,12.70
2018-02-14T02:18:47.500Z,13.00
2018-02-14T02:21:14.988Z,16.83
2018-02-14T02:23:42.453Z,13.17
2018-02-14T02:26:09.927Z,16.17
2018-02-14T02:28:37.382Z,13.13
2018-02-14T02:31:04.826Z,14.47
2018-02-14T02:33:32.287Z,14.37
2018-02-14T02:35:59.732Z,15.93
2018-02-14T02:38:27.207Z,14.80
2018-02-14T02:40:54.662Z,16.70
2018-02-14T02:43:22.145Z,15.63
2018-02-14T02:45:49.604Z,15.80
2018-02-14T02:48:17.046Z,13.97
2018-02-14T02:50:44.516Z,15.00
2018-02-14T02:53:11.972Z,17.17
2018-02-14T02:55:39.554Z,17.97
2018-02-14T02:58:07.806Z,19.83
2018-02-14T03:00:35.264Z,17.90
2018-02-14T03:03:02.727Z,17.33
2018-02-14T03:05:30.999Z,19.80
2018-02-14T03:07:58.564Z,15.23
2018-02-14T03:10:26.011Z,14.50
2018-02-14T03:12:53.462Z,17.00
2018-02-14T03:15:20.934Z,18.43
2018-02-14T03:17:48.382Z,15.97
2018-02-14T03:20:15.863Z,17.17
2018-02-14T03:22:44.075Z,19.00
2018-02-14T03:25:11.559Z,17.80
2018-02-14T03:27:39.031Z,16.27
2018-02-14T03:30:06.494Z,15.13
2018-02-14T03:32:33.974Z,18.80
2018-02-14T03:35:02.206Z,19.93
2018-02-14T03:37:29.689Z,18.43
2018-02-14T03:39:57.151Z,14.50
2018-02-14T03:42:24.609Z,14.03
2018-02-14T03:44:52.064Z,19.03
2018-02-14T03:47:20.331Z,18.47
2018-02-14T03:49:47.794Z,19.33
2018-02-14T03:52:15.270Z,19.43
2018-02-14T03:54:43.506Z,20.90
2018-02-14T03:57:10.996Z,18.70
2018-02-14T03:59:39.358Z,20.77
2018-02-14T04:02:06.835Z,19.53
2018-02-14T04:04:35.070Z,17.70
2018-02-14T04:07:02.538Z,17.13
2018-02-14T04:09:29.985Z,21.23
2018-02-14T04:11:57.470Z,16.40
2018-02-14T04:14:24.970Z,14.67
2018-02-14T04:16:53.180Z,17.87
2018-02-14T04:19:20.622Z,17.47
2018-02-14T04:21:48.090Z,20.40
2018-02-14T04:24:15.538Z,19.53
2018-02-14T04:26:42.998Z,19.80
2018-02-14T04:29:10.476Z,16.60
2018-02-14T04:31:37.962Z,22.83
2018-02-14T04:34:05.409Z,17.80
2018-02-14T04:36:32.878Z,18.30
2018-02-14T04:39:00.323Z,21.13
2018-02-14T04:41:27.804Z,22.13
2018-02-14T04:43:55.243Z,14.03
2018-02-14T04:46:22.725Z,17.30
2018-02-14T04:48:50.178Z,18.10
2018-02-14T04:51:17.622Z,21.77
2018-02-14T04:53:45.094Z,16.97
2018-02-14T04:56:12.545Z,20.57
2018-02-14T04:58:40.007Z,17.30
2018-02-14T05:01:07.478Z,19.20
2018-02-14T05:03:35.739Z,22.20
2018-02-14T05:06:03.226Z,19.33
2018-02-14T05:08:30.719Z,17.93
2018-02-14T05:10:58.322Z,18.80
2018-02-14T05:13:25.775Z,21.50
2018-02-14T05:15:53.238Z,19.13
2018-02-14T05:18:20.743Z,21.47
2018-02-14T05:20:48.210Z,19.40
2018-02-14T05:23:15.703Z,19.03
2018-02-14T05:25:43.160Z,16.00
2018-02-14T05:28:10.623Z,20.57
2018-02-14T05:30:38.087Z,17.87
2018-02-14T05:33:05.542Z,20.30
2018-02-14T05:35:33.007Z,23.10
2018-02-14T05:38:01.226Z,19.33
2018-02-14T05:40:28.698Z,23.23
2018-02-14T05:42:56.151Z,21.83
2018-02-14T05:45:23.647Z,18.73
2018-02-14T05:47:51.083Z,20.70
2018-02-14T05:50:18.555Z,22.77
2018-02-14T05:52:46.014Z,26.63
2018-02-14T05:55:13.527Z,20.30
2018-02-14T05:57:40.990Z,18.03
2018-02-14T06:00:08.454Z,23.67
2018-02-14T06:02:35.955Z,25.40
2018-02-14T06:05:03.418Z,21.67
2018-02-14T06:07:30.870Z,22.30
2018-02-14T06:09:58.335Z,18.50
2018-02-14T06:12:25.798Z,19.30
2018-02-14T06:14:54.043Z,22.73
2018-02-14T06:17:21.507Z,22.73
2018-02-14T06:19:49.585Z,16.67
2018-02-14T06:22:17.071Z,20.67
2018-02-14T06:24:44.548Z,23.70
2018-02-14T06:27:11.999Z,25.63
2018-02-14T06:29:39.472Z,21.90
2018-02-14T06:32:07.699Z,16.97
2018-02-14T06:34:35.170Z,20.73
2018-02-14T06:37:02.668Z,19.10
2018-02-14T06:39:30.902Z,24.50
2018-02-14T06:41:58.491Z,29.70
2018-02-14T06:44:25.967Z,18.87
2018-02-14T06:46:54.311Z,21.90
2018-02-14T06:49:21.774Z,26.07
2018-02-14T06:51:49.244Z,24.60
2018-02-14T06:54:16.700Z,25.47
2018-02-14T06:56:44.294Z,25.37
2018-02-14T06:59:11.787Z,20.87
2018-02-14T07:01:39.262Z,23.40
2018-02-14T07:04:06.718Z,20.20
2018-02-14T07:06:34.170Z,23.70
2018-02-14T07:09:01.634Z,24.30
2018-02-14T07:11:29.132Z,22.40
2018-02-14T07:13:57.371Z,19.37
2018-02-14T07:16:24.851Z,23.87
2018-02-14T07:18:52.332Z,21.80
2018-02-14T07:21:19.831Z,25.37
2018-02-14T07:23:47.286Z,26.27
2018-02-14T07:26:14.754Z,27.00
2018-02-14T07:28:42.239Z,23.53
2018-02-14T07:31:09.681Z,24.60
2018-02-14T07:33:37.174Z,19.53
2018-02-14T07:36:05.415Z,26.03
2018-02-14T07:38:32.891Z,26.83
2018-02-14T07:41:00.357Z,28.03
2018-02-14T07:43:28.586Z,26.60
2018-02-14T07:45:56.055Z,23.07
2018-02-14T07:48:23.519Z,26.37
2018-02-14T07:50:51.058Z,27.00
2018-02-14T07:53:18.562Z,22.33
2018-02-14T07:55:46.103Z,23.37
2018-02-14T07:58:13.579Z,19.30
2018-02-14T08:00:41.064Z,19.90
2018-02-14T08:03:08.517Z,28.57
2018-02-14T08:05:36.821Z,22.67
2018-02-14T08:08:04.299Z,20.60
2018-02-14T08:10:31.755Z,22.30
2018-02-14T08:12:59.247Z,22.67
2018-02-14T08:15:26.726Z,24.97
2018-02-14T08:17:55.039Z,21.53
2018-02-14T08:20:22.514Z,25.23
2018-02-14T08:22:49.964Z,25.50
2018-02-14T08:25:17.432Z,27.33
2018-02-14T08:27:44.915Z,28.53
2018-02-14T08:30:12.384Z,20.63
2018-02-14T08:32:40.599Z,24.37
2018-02-14T08:35:08.062Z,26.53
2018-02-14T08:37:35.518Z,20.93
2018-02-14T08:40:02.959Z,19.30
2018-02-14T08:42:30.479Z,27.67
2018-02-14T08:44:58.759Z,18.63
2018-02-14T08:47:26.226Z,19.37
2018-02-14T08:49:53.697Z,26.70
2018-02-14T08:52:21.961Z,22.47
2018-02-14T08:54:49.446Z,20.20
2018-02-14T08:57:16.972Z,22.53
2018-02-14T08:59:44.428Z,16.60
2018-02-14T09:02:11.897Z,20.63
2018-02-14T09:04:40.154Z,22.17
2018-02-14T09:07:07.643Z,16.57
2018-02-14T09:09:36.007Z,20.87
2018-02-14T09:12:03.478Z,16.77
2018-02-14T09:14:31.726Z,14.70
2018-02-14T09:16:59.216Z,15.70
2018-02-14T09:19:27.474Z,14.40
2018-02-14T09:21:54.939Z,13.53
2018-02-14T09:24:22.491Z,11.23
2018-02-14T09:26:49.945Z,13.40
2018-02-14T09:29:17.410Z,14.20
2018-02-14T09:31:45.105Z,9.40
2018-02-14T09:34:12.634Z,8.47
2018-02-14T09:36:40.090Z,9.53
2018-02-14T09:39:07.543Z,9.73
2018-02-14T09:41:35.187Z,18.73
2018-02-14T09:44:02.667Z,9.17
2018-02-14T09:46:30.124Z,12.83
2018-02-14T09:48:57.686Z,12.43
2018-02-14T09:51:25.145Z,12.90
2018-02-14T09:53:52.771Z,8.03
2018-02-14T09:56:20.222Z,15.30
2018-02-14T09:58:47.735Z,14.03
2018-02-14T10:01:16.182Z,12.97
2018-02-14T10:03:43.650Z,10.77
2018-02-14T10:06:11.291Z,10.87
2018-02-14T10:08:38.750Z,12.83
2018-02-14T10:11:06.398Z,8.83
2018-02-14T10:13:33.865Z,8.47
2018-02-14T10:16:01.343Z,7.63
2018-02-14T10:18:28.820Z,6.17
2018-02-14T10:20:56.262Z,7.83
2018-02-14T10:23:23.734Z,8.90
2018-02-14T10:25:51.218Z,8.77
2018-02-14T10:28:19.838Z,10.40
2018-02-14T10:30:47.342Z,8.43
2018-02-14T10:33:14.798Z,12.20
2018-02-14T10:35:42.263Z,5.53
2018-02-14T10:38:10.503Z,9.47
2018-02-14T10:40:37.974Z,19.90
2018-02-14T10:43:05.434Z,9.80
2018-02-14T10:45:32.906Z,10.80
2018-02-14T10:48:00.346Z,8.77
2018-02-14T10:50:27.803Z,8.20
2018-02-14T10:52:55.270Z,10.73
2018-02-14T10:55:22.759Z,8.50
2018-02-14T10:57:50.990Z,10.10
2018-02-14T11:00:24.192Z,13.40
2018-02-14T11:02:57.383Z,8.80
2018-02-14T11:05:30.603Z,10.67
2018-02-14T11:07:58.825Z,9.97
2018-02-14T11:10:26.294Z,8.83
2018-02-14T11:12:53.772Z,12.63
2018-02-14T11:15:21.220Z,12.00
2018-02-14T11:17:48.658Z,9.93
2018-02-14T11:20:16.134Z,11.73
2018-02-14T11:22:43.599Z,8.30
2018-02-14T11:25:11.078Z,9.13
2018-02-14T11:27:38.597Z,9.50
2018-02-14T11:30:06.062Z,10.57
2018-02-14T11:32:33.644Z,14.57
2018-02-14T11:35:01.371Z,18.67
2018-02-14T11:37:28.875Z,10.50
2018-02-14T11:39:56.339Z,8.23
2018-02-14T11:42:23.857Z,13.50
2018-02-14T11:44:51.322Z,11.70
2018-02-14T11:47:18.892Z,13.20
2018-02-14T11:49:46.433Z,11.63
2018-02-14T11:52:13.895Z,12.13
2018-02-14T11:54:41.353Z,13.10
2018-02-14T11:57:08.802Z,11.10
2018-02-14T11:59:36.292Z,9.90
2018-02-14T12:02:03.752Z,9.30
2018-02-14T12:04:31.214Z,11.23
2018-02-14T12:06:58.690Z,9.97
2018-02-14T12:09:26.912Z,9.03
2018-02-14T12:11:54.424Z,9.90
2018-02-14T12:14:21.881Z,9.43
2018-02-14T12:16:49.331Z,10.73
2018-02-14T12:19:16.802Z,13.07
2018-02-14T12:21:45.015Z,8.97
2018-02-14T12:24:12.472Z,10.17
2018-02-14T12:26:40.022Z,12.00
2018-02-14T12:29:07.555Z,10.53
2018-02-14T12:31:36.046Z,11.30
2018-02-14T12:34:04.291Z,8.87
2018-02-14T12:36:31.758Z,9.03
2018-02-14T12:38:59.417Z,9.93
2018-02-14T12:41:26.877Z,11.33
2018-02-14T12:43:54.541Z,9.80
2018-02-14T12:46:21.999Z,9.13
2018-02-14T12:48:50.203Z,8.67
2018-02-14T12:51:18.433Z,8.87
2018-02-14T12:53:45.949Z,9.83
2018-02-14T12:56:13.355Z,8.50
2018-02-14T12:58:41.115Z,11.23
2018-02-14T13:01:08.615Z,9.77
2018-02-14T13:03:36.132Z,10.47
2018-02-14T13:06:03.598Z,9.17
2018-02-14T13:08:31.072Z,10.23
2018-02-14T13:10:58.532Z,11.83
2018-02-14T13:13:25.988Z,9.53
2018-02-14T13:15:53.464Z,10.00
2018-02-14T13:18:21.688Z,10.37
2018-02-14T13:20:49.130Z,8.90
2018-02-14T13:23:16.589Z,12.47
2018-02-14T13:25:44.098Z,10.20
2018-02-14T13:28:11.567Z,8.60
2018-02-14T13:30:39.790Z,8.37
2018-02-14T13:33:07.290Z,7.97
2018-02-14T13:35:34.742Z,7.17
2018-02-14T13:38:02.236Z,7.97
2018-02-14T13:40:30.458Z,7.10
2018-02-14T13:42:57.962Z,7.13
2018-02-14T13:45:26.225Z,5.40
2018-02-14T13:47:54.452Z,4.87
2018-02-14T13:50:21.939Z,6.63
2018-02-14T13:52:49.696Z,8.43
2018-02-14T13:55:17.158Z,6.57
2018-02-14T13:57:44.617Z,7.40
2018-02-14T14:00:12.070Z,6.83
2018-02-14T14:02:39.612Z,8.63
2018-02-14T14:05:07.064Z,8.53
2018-02-14T14:07:34.518Z,5.17
2018-02-14T14:10:01.993Z,7.60
2018-02-14T14:12:29.490Z,7.40
2018-02-14T14:14:58.055Z,7.23
2018-02-14T14:17:25.512Z,6.13
2018-02-14T14:19:52.963Z,8.03
2018-02-14T14:22:20.409Z,8.03
2018-02-14T14:24:47.878Z,9.30
2018-02-14T14:27:15.330Z,8.00
2018-02-14T14:29:42.802Z,6.83
2018-02-14T14:32:10.279Z,10.23
2018-02-14T14:34:37.746Z,11.60
2018-02-14T14:37:05.977Z,8.63
2018-02-14T14:39:33.466Z,10.10
2018-02-14T14:42:00.910Z,12.67
2018-02-14T14:44:28.366Z,10.57
2018-02-14T14:46:55.839Z,16.47
2018-02-14T14:49:23.286Z,8.33
2018-02-14T14:51:50.830Z,7.00
2018-02-14T14:54:18.318Z,8.97
2018-02-14T14:56:45.807Z,8.30
2018-02-14T14:59:13.306Z,8.67
2018-02-14T15:01:40.766Z,6.53
2018-02-14T15:04:08.233Z,8.80
2018-02-14T15:06:35.728Z,16.40
2018-02-14T15:09:03.963Z,9.70
2018-02-14T15:11:31.411Z,8.60
2018-02-14T15:13:58.947Z,7.33
2018-02-14T15:16:27.154Z,7.10
2018-02-14T15:18:54.655Z,10.93
2018-02-14T15:21:22.895Z,9.70
2018-02-14T15:23:50.378Z,12.53
2018-02-14T15:26:17.863Z,17.07
2018-02-14T15:28:45.343Z,13.27
2018-02-14T15:31:13.807Z,12.63
2018-02-14T15:33:42.012Z,13.00
2018-02-14T15:36:09.471Z,12.20
2018-02-14T15:38:36.984Z,6.43
2018-02-14T15:41:05.260Z,7.53
2018-02-14T15:43:32.708Z,8.93
2018-02-14T15:46:00.179Z,12.43
2018-02-14T15:48:28.383Z,8.30
2018-02-14T15:50:55.867Z,9.10
2018-02-14T15:53:23.318Z,10.83
2018-02-14T15:55:50.765Z,9.17
2018-02-14T15:58:18.229Z,11.07
2018-02-14T16:00:45.683Z,9.57
2018-02-14T16:03:13.168Z,15.27
2018-02-14T16:05:40.731Z,11.40
2018-02-14T16:08:08.199Z,11.40
2018-02-14T16:10:35.647Z,10.80
2018-02-14T16:13:03.128Z,9.07
2018-02-14T16:15:30.814Z,14.90
2018-02-14T16:17:58.274Z,12.57
2018-02-14T16:20:25.766Z,9.93
2018-02-14T16:22:53.234Z,21.60
2018-02-14T16:25:20.743Z,14.00
2018-02-14T16:27:48.156Z,20.53
2018-02-14T16:30:15.638Z,10.77
2018-02-14T16:32:43.102Z,10.87
2018-02-14T16:35:11.358Z,12.93
2018-02-14T16:37:38.818Z,9.30
2018-02-14T16:40:06.283Z,9.00
2018-02-14T16:42:33.745Z,12.33
2018-02-14T16:45:01.187Z,9.80
2018-02-14T16:47:28.654Z,13.80
2018-02-14T16:49:56.135Z,9.80
2018-02-14T16:52:24.378Z,12.13
2018-02-14T16:54:51.847Z,14.77
2018-02-14T16:57:19.342Z,9.30
2018-02-14T16:59:46.789Z,11.03
2018-02-14T17:02:15.066Z,14.30
2018-02-14T17:04:42.810Z,11.77
2018-02-14T17:07:11.069Z,10.00
2018-02-14T17:09:38.570Z,11.67
2018-02-14T17:12:06.836Z,15.77
2018-02-14T17:14:35.076Z,40.83
2018-02-14T17:17:02.556Z,18.60
2018-02-14T17:19:30.012Z,21.03
2018-02-14T17:21:57.451Z,28.77
2018-02-14T17:24:24.986Z,17.20
2018-02-14T17:26:52.471Z,9.30
2018-02-14T17:29:19.935Z,8.47
2018-02-14T17:31:47.405Z,12.17
2018-02-14T17:34:14.850Z,13.30
2018-02-14T17:36:42.303Z,13.17
2018-02-14T17:39:09.764Z,11.40
2018-02-14T17:41:37.253Z,15.37
2018-02-14T17:44:04.694Z,13.03
2018-02-14T17:46:32.139Z,14.60
2018-02-14T17:48:59.643Z,11.40
2018-02-14T17:51:27.130Z,16.27
2018-02-14T17:53:54.729Z,13.03
2018-02-14T17:56:22.204Z,15.23
2018-02-14T17:58:50.441Z,14.43
2018-02-14T18:01:17.898Z,20.73
2018-02-14T18:03:45.482Z,33.10
2018-02-14T18:06:13.108Z,29.83
2018-02-14T18:08:40.574Z,26.83
2018-02-14T18:11:14.007Z,23.47
2018-02-14T18:13:41.513Z,19.97
2018-02-14T18:16:12.922Z,19.90
2018-02-14T18:18:40.398Z,17.70
2018-02-14T18:21:08.031Z,18.37
2018-02-14T18:23:35.503Z,24.53
2018-02-14T18:26:03.919Z,25.97
2018-02-14T18:28:31.343Z,17.33
2018-02-14T18:30:59.579Z,29.00
2018-02-14T18:33:27.088Z,23.87
2018-02-14T18:35:55.410Z,11.70
2018-02-14T18:38:22.871Z,19.87
2018-02-14T18:40:50.337Z,31.50
2018-02-14T18:43:17.803Z,39.00
2018-02-14T18:45:45.290Z,34.07
2018-02-14T18:48:13.538Z,30.97
2018-02-14T18:50:41.072Z,32.03
2018-02-14T18:53:08.528Z,32.47
2018-02-14T18:55:36.040Z,25.80
2018-02-14T18:58:03.543Z,13.60
2018-02-14T19:00:30.999Z,15.60
2018-02-14T19:02:58.453Z,15.47
2018-02-14T19:05:25.919Z,19.23
2018-02-14T19:07:53.401Z,23.20
2018-02-14T19:10:20.868Z,26.03
2018-02-14T19:12:48.336Z,34.23
2018-02-14T19:15:16.586Z,24.90
2018-02-14T19:17:44.062Z,35.57
2018-02-14T19:20:11.524Z,16.60
2018-02-14T19:22:38.987Z,14.40
2018-02-14T19:25:06.458Z,17.37
2018-02-14T19:27:33.959Z,20.17
2018-02-14T19:30:01.442Z,16.77
2018-02-14T19:32:28.874Z,19.60
2018-02-14T19:34:56.534Z,16.07
2018-02-14T19:37:23.989Z,20.80
2018-02-14T19:39:52.222Z,21.07
2018-02-14T19:42:19.691Z,19.53
2018-02-14T19:44:47.910Z,15.03
2018-02-14T19:47:15.362Z,15.90
2018-02-14T19:49:42.847Z,15.03
2018-02-14T19:52:10.401Z,18.33
2018-02-14T19:54:37.861Z,19.00
2018-02-14T19:57:05.336Z,14.93
2018-02-14T19:59:32.812Z,17.37
2018-02-14T20:02:00.350Z,17.77
2018-02-14T20:04:27.784Z,17.77
2018-02-14T20:06:55.319Z,13.80
2018-02-14T20:09:22.775Z,16.00
2018-02-14T20:11:50.250Z,17.17
2018-02-14T20:14:17.692Z,20.13
2018-02-14T20:16:45.150Z,15.07
2018-02-14T20:19:12.589Z,13.60
2018-02-14T20:21:40.824Z,15.97
2018-02-14T20:24:08.272Z,15.00
2018-02-14T20:26:35.737Z,22.40
2018-02-14T20:29:03.191Z,22.53
2018-02-14T20:31:30.688Z,17.10
2018-02-14T20:33:58.121Z,14.00
2018-02-14T20:36:25.594Z,12.60
2018-02-14T20:38:53.061Z,15.60
2018-02-14T20:41:20.517Z,14.80
2018-02-14T20:43:48.777Z,12.90
2018-02-14T20:46:16.218Z,17.37
2018-02-14T20:48:43.716Z,17.50
2018-02-14T20:51:11.222Z,18.00
2018-02-14T20:53:38.690Z,15.93
2018-02-14T20:56:06.183Z,17.50
2018-02-14T20:58:33.653Z,17.20
2018-02-14T21:01:01.922Z,18.57
2018-02-14T21:03:29.735Z,16.77
2018-02-14T21:05:57.195Z,18.20
2018-02-14T21:08:24.716Z,13.10
2018-02-14T21:10:52.952Z,13.87
2018-02-14T21:13:20.438Z,21.17
2018-02-14T21:15:47.891Z,17.10
2018-02-14T21:18:15.338Z,25.70
2018-02-14T21:20:42.886Z,20.60
2018-02-14T21:23:10.344Z,18.43
2018-02-14T21:25:37.862Z,15.57
2018-02-14T21:28:05.368Z,18.30
2018-02-14T21:30:32.854Z,14.83
2018-02-14T21:33:00.351Z,19.93
2018-02-14T21:35:27.794Z,19.07
2018-02-14T21:37:55.302Z,18.37
2018-02-14T21:40:22.849Z,20.27
2018-02-14T21:42:50.303Z,22.80
2018-02-14T21:45:17.785Z,21.33
2018-02-14T21:47:45.260Z,28.00
2018-02-14T21:50:12.745Z,17.83
2018-02-14T21:52:40.967Z,20.87
2018-02-14T21:55:08.434Z,23.70
2018-02-14T21:57:35.983Z,25.83
2018-02-14T22:00:03.455Z,21.70
2018-02-14T22:02:30.957Z,25.73
2018-02-14T22:04:59.189Z,19.60
2018-02-14T22:07:26.686Z,20.53
2018-02-14T22:09:54.932Z,24.03
2018-02-14T22:12:22.414Z,24.23
2018-02-14T22:14:50.637Z,29.00
2018-02-14T22:17:18.106Z,19.20
2018-02-14T22:19:45.574Z,30.10
2018-02-14T22:22:13.074Z,24.93
2018-02-14T22:24:41.334Z,25.67
2018-02-14T22:27:08.795Z,27.40
2018-02-14T22:29:36.258Z,22.13
2018-02-14T22:32:04.483Z,27.80
2018-02-14T22:34:31.951Z,24.90
2018-02-14T22:36:59.423Z,32.40
2018-02-14T22:39:26.863Z,34.40
2018-02-14T22:41:54.323Z,28.17
2018-02-14T22:44:21.765Z,23.17
2018-02-14T22:46:49.268Z,29.30
2018-02-14T22:49:16.737Z,25.53
2018-02-14T22:51:44.197Z,25.13
2018-02-14T22:54:12.445Z,21.03
2018-02-14T22:56:39.892Z,36.97
2018-02-14T22:59:07.430Z,24.50
2018-02-14T23:01:34.889Z,23.27
2018-02-14T23:04:02.402Z,22.03
2018-02-14T23:06:29.888Z,25.27
2018-02-14T23:08:57.400Z,28.33
2018-02-14T23:11:24.960Z,28.23
2018-02-14T23:13:52.521Z,19.77
2018-02-14T23:16:20.206Z,28.90
2018-02-14T23:18:48.468Z,20.20
2018-02-14T23:21:16.056Z,23.53
2018-02-14T23:23:44.262Z,20.07
2018-02-14T23:26:11.775Z,20.93
2018-02-14T23:28:39.246Z,23.80
2018-02-14T23:31:07.491Z,22.47
2018-02-14T23:33:34.958Z,19.20
2018-02-14T23:36:02.430Z,22.60
2018-02-14T23:38:29.889Z,24.20
2018-02-14T23:40:58.160Z,22.87
2018-02-14T23:43:25.623Z,23.60
2018-02-14T23:45:53.083Z,18.50
2018-02-14T23:48:21.318Z,20.87
2018-02-14T23:50:48.806Z,22.33
2018-02-14T23:53:16.373Z,22.70
2018-02-14T23:55:43.882Z,20.10
2018-02-14T23:58:11.352Z,20.10
